sensor_id;sensor_type;location;lat;lon;timestamp;P1;durP1;ratioP1;P2;durP2;ratioP2
68212;SDS011;55035;47.792;8.724;2023-02-21T00:01:18;11.63;;;3.58;;
68212;SDS011;55035;47.792;8.724;2023-02-21T00:04:02;10.68;;;4.05;;
68212;SDS011;55035;47.792;8.724;2023-02-21T00:06:47;11.73;;;3.90;;
68212;SDS011;55035;47.792;8.724;2023-02-21T00:09:32;11.65;;;3.67;;
68212;SDS011;55035;47.792;8.724;2023-02-21T00:12:17;9.55;;;3.83;;
68212;SDS011;55035;47.792;8.724;2023-02-21T00:15:01;10.80;;;3.53;;
68212;SDS011;55035;47.792;8.724;2023-02-21T00:17:45;9.88;;;3.50;;
68212;SDS011;55035;47.792;8.724;2023-02-21T00:20:29;11.03;;;3.73;;
68212;SDS011;55035;47.792;8.724;2023-02-21T00:23:13;10.70;;;3.20;;
68212;SDS011;55035;47.792;8.724;2023-02-21T00:25:58;10.88;;;4.03;;
68212;SDS011;55035;47.792;8.724;2023-02-21T00:28:42;12.52;;;4.28;;
68212;SDS011;55035;47.792;8.724;2023-02-21T00:31:28;11.90;;;4.43;;
68212;SDS011;55035;47.792;8.724;2023-02-21T00:34:12;9.97;;;3.90;;
68212;SDS011;55035;47.792;8.724;2023-02-21T00:36:57;11.40;;;4.55;;
68212;SDS011;55035;47.792;8.724;2023-02-21T00:39:41;11.70;;;3.90;;
68212;SDS011;55035;47.792;8.724;2023-02-21T00:42:27;10.73;;;3.50;;
68212;SDS011;55035;47.792;8.724;2023-02-21T00:45:14;11.88;;;4.20;;
68212;SDS011;55035;47.792;8.724;2023-02-21T00:47:59;16.47;;;5.87;;
68212;SDS011;55035;47.792;8.724;2023-02-21T00:50:43;20.67;;;5.93;;
68212;SDS011;55035;47.792;8.724;2023-02-21T00:53:27;19.30;;;6.55;;
68212;SDS011;55035;47.792;8.724;2023-02-21T00:56:12;20.35;;;6.50;;
68212;SDS011;55035;47.792;8.724;2023-02-21T00:58:58;15.02;;;5.13;;
68212;SDS011;55035;47.792;8.724;2023-02-21T01:01:42;11.90;;;4.03;;
68212;SDS011;55035;47.792;8.724;2023-02-21T01:04:27;19.67;;;6.55;;
68212;SDS011;55035;47.792;8.724;2023-02-21T01:07:12;16.15;;;5.25;;
68212;SDS011;55035;47.792;8.724;2023-02-21T01:09:57;11.98;;;4.30;;
68212;SDS011;55035;47.792;8.724;2023-02-21T01:12:41;14.15;;;4.03;;
68212;SDS011;55035;47.792;8.724;2023-02-21T01:15:27;10.33;;;3.33;;
68212;SDS011;55035;47.792;8.724;2023-02-21T01:18:12;9.68;;;3.25;;
68212;SDS011;55035;47.792;8.724;2023-02-21T01:20:56;10.07;;;3.08;;
68212;SDS011;55035;47.792;8.724;2023-02-21T01:23:40;12.68;;;4.55;;
68212;SDS011;55035;47.792;8.724;2023-02-21T01:26:24;9.68;;;3.63;;
68212;SDS011;55035;47.792;8.724;2023-02-21T01:29:09;9.23;;;3.67;;
68212;SDS011;55035;47.792;8.724;2023-02-21T01:31:54;10.50;;;3.72;;
68212;SDS011;55035;47.792;8.724;2023-02-21T01:34:38;9.57;;;3.63;;
68212;SDS011;55035;47.792;8.724;2023-02-21T01:37:22;11.95;;;3.53;;
68212;SDS011;55035;47.792;8.724;2023-02-21T01:40:07;11.68;;;3.65;;
68212;SDS011;55035;47.792;8.724;2023-02-21T01:42:52;8.93;;;3.10;;
68212;SDS011;55035;47.792;8.724;2023-02-21T01:45:44;10.70;;;3.90;;
68212;SDS011;55035;47.792;8.724;2023-02-21T01:48:32;11.93;;;3.40;;
68212;SDS011;55035;47.792;8.724;2023-02-21T01:51:17;9.63;;;3.00;;
68212;SDS011;55035;47.792;8.724;2023-02-21T01:54:02;11.15;;;3.45;;
68212;SDS011;55035;47.792;8.724;2023-02-21T01:56:47;10.40;;;3.23;;
68212;SDS011;55035;47.792;8.724;2023-02-21T01:59:32;10.10;;;3.45;;
68212;SDS011;55035;47.792;8.724;2023-02-21T02:02:17;9.15;;;3.38;;
68212;SDS011;55035;47.792;8.724;2023-02-21T02:05:05;8.73;;;3.28;;
68212;SDS011;55035;47.792;8.724;2023-02-21T02:07:51;11.98;;;3.70;;
68212;SDS011;55035;47.792;8.724;2023-02-21T02:10:38;10.20;;;3.10;;
68212;SDS011;55035;47.792;8.724;2023-02-21T02:13:27;12.38;;;3.42;;
68212;SDS011;55035;47.792;8.724;2023-02-21T02:15:56;10.00;;;3.83;;
68212;SDS011;55035;47.792;8.724;2023-02-21T02:18:36;11.15;;;3.90;;
68212;SDS011;55035;47.792;8.724;2023-02-21T02:24:04;10.53;;;3.40;;
68212;SDS011;55035;47.792;8.724;2023-02-21T02:26:49;10.60;;;3.40;;
68212;SDS011;55035;47.792;8.724;2023-02-21T02:29:26;10.98;;;3.45;;
68212;SDS011;55035;47.792;8.724;2023-02-21T02:32:03;9.60;;;3.08;;
68212;SDS011;55035;47.792;8.724;2023-02-21T02:34:49;10.05;;;3.22;;
68212;SDS011;55035;47.792;8.724;2023-02-21T02:37:21;8.90;;;3.50;;
68212;SDS011;55035;47.792;8.724;2023-02-21T02:39:50;11.48;;;3.50;;
68212;SDS011;55035;47.792;8.724;2023-02-21T02:42:24;10.82;;;3.45;;
68212;SDS011;55035;47.792;8.724;2023-02-21T02:44:55;11.48;;;3.42;;
68212;SDS011;55035;47.792;8.724;2023-02-21T02:47:24;8.80;;;3.40;;
68212;SDS011;55035;47.792;8.724;2023-02-21T02:49:55;9.23;;;3.17;;
68212;SDS011;55035;47.792;8.724;2023-02-21T02:52:25;10.75;;;3.50;;
68212;SDS011;55035;47.792;8.724;2023-02-21T02:54:58;7.97;;;3.17;;
68212;SDS011;55035;47.792;8.724;2023-02-21T02:57:26;9.73;;;3.00;;
68212;SDS011;55035;47.792;8.724;2023-02-21T02:59:53;13.25;;;4.38;;
68212;SDS011;55035;47.792;8.724;2023-02-21T03:02:32;10.77;;;3.37;;
68212;SDS011;55035;47.792;8.724;2023-02-21T03:05:07;9.05;;;3.13;;
68212;SDS011;55035;47.792;8.724;2023-02-21T03:07:42;10.73;;;3.95;;
68212;SDS011;55035;47.792;8.724;2023-02-21T03:10:12;9.95;;;3.30;;
68212;SDS011;55035;47.792;8.724;2023-02-21T03:12:41;10.65;;;3.90;;
68212;SDS011;55035;47.792;8.724;2023-02-21T03:15:11;8.83;;;3.40;;
68212;SDS011;55035;47.792;8.724;2023-02-21T03:17:42;9.52;;;3.17;;
68212;SDS011;55035;47.792;8.724;2023-02-21T03:20:12;10.60;;;3.20;;
68212;SDS011;55035;47.792;8.724;2023-02-21T03:22:41;11.00;;;3.20;;
68212;SDS011;55035;47.792;8.724;2023-02-21T03:25:09;10.38;;;3.13;;
68212;SDS011;55035;47.792;8.724;2023-02-21T03:27:37;11.37;;;3.73;;
68212;SDS011;55035;47.792;8.724;2023-02-21T03:30:13;11.63;;;3.70;;
68212;SDS011;55035;47.792;8.724;2023-02-21T03:32:41;10.02;;;3.67;;
68212;SDS011;55035;47.792;8.724;2023-02-21T03:35:13;8.65;;;3.33;;
68212;SDS011;55035;47.792;8.724;2023-02-21T03:37:41;10.50;;;3.08;;
68212;SDS011;55035;47.792;8.724;2023-02-21T03:40:10;9.03;;;3.13;;
68212;SDS011;55035;47.792;8.724;2023-02-21T03:42:38;9.65;;;3.08;;
68212;SDS011;55035;47.792;8.724;2023-02-21T03:45:06;8.98;;;3.38;;
68212;SDS011;55035;47.792;8.724;2023-02-21T03:47:33;9.35;;;3.25;;
68212;SDS011;55035;47.792;8.724;2023-02-21T03:50:01;9.57;;;3.30;;
68212;SDS011;55035;47.792;8.724;2023-02-21T03:52:32;10.80;;;3.30;;
68212;SDS011;55035;47.792;8.724;2023-02-21T03:55:00;10.05;;;3.40;;
68212;SDS011;55035;47.792;8.724;2023-02-21T03:57:27;8.88;;;3.50;;
68212;SDS011;55035;47.792;8.724;2023-02-21T03:59:54;9.80;;;3.13;;
68212;SDS011;55035;47.792;8.724;2023-02-21T04:02:21;9.15;;;3.50;;
68212;SDS011;55035;47.792;8.724;2023-02-21T04:04:48;9.53;;;3.27;;
68212;SDS011;55035;47.792;8.724;2023-02-21T04:07:18;8.57;;;3.28;;
68212;SDS011;55035;47.792;8.724;2023-02-21T04:09:47;10.20;;;3.53;;
68212;SDS011;55035;47.792;8.724;2023-02-21T04:12:19;10.27;;;3.28;;
68212;SDS011;55035;47.792;8.724;2023-02-21T04:14:47;9.77;;;3.05;;
68212;SDS011;55035;47.792;8.724;2023-02-21T04:17:14;10.67;;;3.40;;
68212;SDS011;55035;47.792;8.724;2023-02-21T04:19:42;9.23;;;3.25;;
68212;SDS011;55035;47.792;8.724;2023-02-21T04:22:09;8.88;;;3.38;;
68212;SDS011;55035;47.792;8.724;2023-02-21T04:24:36;13.68;;;3.78;;
68212;SDS011;55035;47.792;8.724;2023-02-21T04:27:05;9.18;;;3.55;;
68212;SDS011;55035;47.792;8.724;2023-02-21T04:29:35;9.60;;;3.40;;
68212;SDS011;55035;47.792;8.724;2023-02-21T04:32:02;10.63;;;3.60;;
68212;SDS011;55035;47.792;8.724;2023-02-21T04:34:30;8.23;;;3.00;;
68212;SDS011;55035;47.792;8.724;2023-02-21T04:36:56;9.07;;;3.17;;
68212;SDS011;55035;47.792;8.724;2023-02-21T04:39:24;10.25;;;3.30;;
68212;SDS011;55035;47.792;8.724;2023-02-21T04:41:51;9.57;;;3.07;;
68212;SDS011;55035;47.792;8.724;2023-02-21T04:44:19;9.75;;;3.30;;
68212;SDS011;55035;47.792;8.724;2023-02-21T04:46:46;10.68;;;3.55;;
68212;SDS011;55035;47.792;8.724;2023-02-21T04:49:13;10.10;;;3.30;;
68212;SDS011;55035;47.792;8.724;2023-02-21T04:51:40;7.20;;;3.05;;
68212;SDS011;55035;47.792;8.724;2023-02-21T04:54:06;9.37;;;2.83;;
68212;SDS011;55035;47.792;8.724;2023-02-21T04:56:33;8.48;;;3.38;;
68212;SDS011;55035;47.792;8.724;2023-02-21T04:59:01;9.15;;;3.58;;
68212;SDS011;55035;47.792;8.724;2023-02-21T05:01:30;11.43;;;3.50;;
68212;SDS011;55035;47.792;8.724;2023-02-21T05:03:57;8.13;;;3.60;;
68212;SDS011;55035;47.792;8.724;2023-02-21T05:06:24;9.67;;;3.23;;
68212;SDS011;55035;47.792;8.724;2023-02-21T05:08:51;8.48;;;3.28;;
68212;SDS011;55035;47.792;8.724;2023-02-21T05:11:19;7.53;;;2.85;;
68212;SDS011;55035;47.792;8.724;2023-02-21T05:13:46;10.25;;;3.10;;
68212;SDS011;55035;47.792;8.724;2023-02-21T05:16:13;8.32;;;2.85;;
68212;SDS011;55035;47.792;8.724;2023-02-21T05:18:42;10.47;;;2.97;;
68212;SDS011;55035;47.792;8.724;2023-02-21T05:21:09;10.55;;;3.35;;
68212;SDS011;55035;47.792;8.724;2023-02-21T05:23:36;7.40;;;2.67;;
68212;SDS011;55035;47.792;8.724;2023-02-21T05:26:05;9.57;;;2.42;;
68212;SDS011;55035;47.792;8.724;2023-02-21T05:28:32;8.57;;;2.55;;
68212;SDS011;55035;47.792;8.724;2023-02-21T05:30:59;8.67;;;2.30;;
68212;SDS011;55035;47.792;8.724;2023-02-21T05:33:26;8.57;;;2.33;;
68212;SDS011;55035;47.792;8.724;2023-02-21T05:35:54;9.10;;;2.50;;
68212;SDS011;55035;47.792;8.724;2023-02-21T05:38:22;8.88;;;2.83;;
68212;SDS011;55035;47.792;8.724;2023-02-21T05:40:49;12.02;;;2.70;;
68212;SDS011;55035;47.792;8.724;2023-02-21T05:43:16;7.87;;;2.43;;
68212;SDS011;55035;47.792;8.724;2023-02-21T05:45:45;7.13;;;2.50;;
68212;SDS011;55035;47.792;8.724;2023-02-21T05:48:12;7.38;;;2.47;;
68212;SDS011;55035;47.792;8.724;2023-02-21T05:50:39;6.68;;;2.30;;
68212;SDS011;55035;47.792;8.724;2023-02-21T05:53:07;9.15;;;2.42;;
68212;SDS011;55035;47.792;8.724;2023-02-21T05:55:34;7.23;;;2.23;;
68212;SDS011;55035;47.792;8.724;2023-02-21T05:58:01;11.40;;;3.08;;
68212;SDS011;55035;47.792;8.724;2023-02-21T06:00:28;10.00;;;3.38;;
68212;SDS011;55035;47.792;8.724;2023-02-21T06:02:56;10.07;;;2.80;;
68212;SDS011;55035;47.792;8.724;2023-02-21T06:05:23;14.70;;;4.85;;
68212;SDS011;55035;47.792;8.724;2023-02-21T06:07:49;13.40;;;4.77;;
68212;SDS011;55035;47.792;8.724;2023-02-21T06:10:18;12.80;;;3.50;;
68212;SDS011;55035;47.792;8.724;2023-02-21T06:12:45;11.45;;;3.95;;
68212;SDS011;55035;47.792;8.724;2023-02-21T06:15:12;9.48;;;3.70;;
68212;SDS011;55035;47.792;8.724;2023-02-21T06:17:39;12.80;;;4.45;;
68212;SDS011;55035;47.792;8.724;2023-02-21T06:20:06;11.80;;;4.30;;
68212;SDS011;55035;47.792;8.724;2023-02-21T06:22:33;13.77;;;3.92;;
68212;SDS011;55035;47.792;8.724;2023-02-21T06:25:00;11.68;;;3.83;;
68212;SDS011;55035;47.792;8.724;2023-02-21T06:27:29;11.15;;;4.05;;
68212;SDS011;55035;47.792;8.724;2023-02-21T06:29:55;13.25;;;4.63;;
68212;SDS011;55035;47.792;8.724;2023-02-21T06:32:22;13.90;;;4.07;;
68212;SDS011;55035;47.792;8.724;2023-02-21T06:34:49;12.25;;;4.32;;
68212;SDS011;55035;47.792;8.724;2023-02-21T06:37:16;16.17;;;5.22;;
68212;SDS011;55035;47.792;8.724;2023-02-21T06:39:43;13.73;;;5.00;;
68212;SDS011;55035;47.792;8.724;2023-02-21T06:42:11;15.23;;;5.28;;
68212;SDS011;55035;47.792;8.724;2023-02-21T06:44:39;14.37;;;5.10;;
68212;SDS011;55035;47.792;8.724;2023-02-21T06:47:08;11.15;;;4.20;;
68212;SDS011;55035;47.792;8.724;2023-02-21T06:49:35;15.32;;;5.00;;
68212;SDS011;55035;47.792;8.724;2023-02-21T06:52:02;13.80;;;4.80;;
68212;SDS011;55035;47.792;8.724;2023-02-21T06:54:28;11.48;;;4.50;;
68212;SDS011;55035;47.792;8.724;2023-02-21T06:56:56;12.70;;;4.30;;
68212;SDS011;55035;47.792;8.724;2023-02-21T06:59:23;10.90;;;4.13;;
68212;SDS011;55035;47.792;8.724;2023-02-21T07:01:51;13.77;;;3.72;;
68212;SDS011;55035;47.792;8.724;2023-02-21T07:04:18;11.07;;;3.88;;
68212;SDS011;55035;47.792;8.724;2023-02-21T07:06:45;12.60;;;4.35;;
68212;SDS011;55035;47.792;8.724;2023-02-21T07:09:12;11.20;;;3.77;;
68212;SDS011;55035;47.792;8.724;2023-02-21T07:11:38;11.57;;;4.40;;
68212;SDS011;55035;47.792;8.724;2023-02-21T07:14:05;10.75;;;4.03;;
68212;SDS011;55035;47.792;8.724;2023-02-21T07:16:32;20.23;;;7.15;;
68212;SDS011;55035;47.792;8.724;2023-02-21T07:19:00;11.55;;;4.45;;
68212;SDS011;55035;47.792;8.724;2023-02-21T07:21:27;11.37;;;3.97;;
68212;SDS011;55035;47.792;8.724;2023-02-21T07:23:55;11.93;;;4.40;;
68212;SDS011;55035;47.792;8.724;2023-02-21T07:26:21;11.70;;;4.40;;
68212;SDS011;55035;47.792;8.724;2023-02-21T07:28:49;10.82;;;4.10;;
68212;SDS011;55035;47.792;8.724;2023-02-21T07:31:17;10.23;;;4.00;;
68212;SDS011;55035;47.792;8.724;2023-02-21T07:33:45;10.07;;;3.63;;
68212;SDS011;55035;47.792;8.724;2023-02-21T07:36:13;10.57;;;3.70;;
68212;SDS011;55035;47.792;8.724;2023-02-21T07:38:42;9.02;;;3.55;;
68212;SDS011;55035;47.792;8.724;2023-02-21T07:41:10;10.43;;;3.50;;
68212;SDS011;55035;47.792;8.724;2023-02-21T07:43:40;8.80;;;2.90;;
68212;SDS011;55035;47.792;8.724;2023-02-21T07:46:08;9.33;;;3.20;;
68212;SDS011;55035;47.792;8.724;2023-02-21T07:48:35;14.15;;;5.30;;
68212;SDS011;55035;47.792;8.724;2023-02-21T07:51:02;10.75;;;3.78;;
68212;SDS011;55035;47.792;8.724;2023-02-21T07:53:31;8.52;;;3.22;;
68212;SDS011;55035;47.792;8.724;2023-02-21T07:55:58;9.30;;;3.65;;
68212;SDS011;55035;47.792;8.724;2023-02-21T07:58:25;11.17;;;3.60;;
68212;SDS011;55035;47.792;8.724;2023-02-21T08:00:52;12.45;;;4.55;;
68212;SDS011;55035;47.792;8.724;2023-02-21T08:03:20;12.93;;;5.90;;
68212;SDS011;55035;47.792;8.724;2023-02-21T08:05:47;14.02;;;5.25;;
68212;SDS011;55035;47.792;8.724;2023-02-21T08:08:14;16.75;;;6.13;;
68212;SDS011;55035;47.792;8.724;2023-02-21T08:10:42;15.83;;;6.00;;
68212;SDS011;55035;47.792;8.724;2023-02-21T08:13:09;14.20;;;5.90;;
68212;SDS011;55035;47.792;8.724;2023-02-21T08:15:36;22.80;;;10.00;;
68212;SDS011;55035;47.792;8.724;2023-02-21T08:18:03;19.08;;;9.20;;
68212;SDS011;55035;47.792;8.724;2023-02-21T08:20:30;24.35;;;9.35;;
68212;SDS011;55035;47.792;8.724;2023-02-21T08:22:57;16.87;;;8.37;;
68212;SDS011;55035;47.792;8.724;2023-02-21T08:25:24;16.92;;;7.20;;
68212;SDS011;55035;47.792;8.724;2023-02-21T08:27:52;14.13;;;8.05;;
68212;SDS011;55035;47.792;8.724;2023-02-21T08:30:20;15.07;;;7.97;;
68212;SDS011;55035;47.792;8.724;2023-02-21T08:32:49;16.40;;;8.60;;
68212;SDS011;55035;47.792;8.724;2023-02-21T08:35:18;13.93;;;8.07;;
68212;SDS011;55035;47.792;8.724;2023-02-21T08:37:46;17.08;;;8.30;;
68212;SDS011;55035;47.792;8.724;2023-02-21T08:40:14;14.50;;;7.32;;
68212;SDS011;55035;47.792;8.724;2023-02-21T08:42:47;19.30;;;10.57;;
68212;SDS011;55035;47.792;8.724;2023-02-21T08:45:16;52.33;;;14.02;;
68212;SDS011;55035;47.792;8.724;2023-02-21T08:47:43;17.13;;;9.00;;
68212;SDS011;55035;47.792;8.724;2023-02-21T08:50:11;17.23;;;7.40;;
68212;SDS011;55035;47.792;8.724;2023-02-21T08:52:39;15.07;;;8.02;;
68212;SDS011;55035;47.792;8.724;2023-02-21T08:55:06;14.75;;;6.00;;
68212;SDS011;55035;47.792;8.724;2023-02-21T08:57:35;13.88;;;6.63;;
68212;SDS011;55035;47.792;8.724;2023-02-21T09:00:02;14.90;;;8.03;;
68212;SDS011;55035;47.792;8.724;2023-02-21T09:02:32;14.63;;;8.38;;
68212;SDS011;55035;47.792;8.724;2023-02-21T09:04:59;16.38;;;8.60;;
68212;SDS011;55035;47.792;8.724;2023-02-21T09:07:26;18.75;;;9.45;;
68212;SDS011;55035;47.792;8.724;2023-02-21T09:09:57;17.17;;;9.35;;
68212;SDS011;55035;47.792;8.724;2023-02-21T09:12:24;15.73;;;7.40;;
68212;SDS011;55035;47.792;8.724;2023-02-21T09:14:52;17.48;;;8.90;;
68212;SDS011;55035;47.792;8.724;2023-02-21T09:17:19;16.63;;;8.73;;
68212;SDS011;55035;47.792;8.724;2023-02-21T09:19:48;16.88;;;8.52;;
68212;SDS011;55035;47.792;8.724;2023-02-21T09:22:15;16.20;;;8.63;;
68212;SDS011;55035;47.792;8.724;2023-02-21T09:24:42;14.83;;;8.17;;
68212;SDS011;55035;47.792;8.724;2023-02-21T09:27:09;15.88;;;7.80;;
68212;SDS011;55035;47.792;8.724;2023-02-21T09:29:36;15.25;;;7.70;;
68212;SDS011;55035;47.792;8.724;2023-02-21T09:32:06;17.15;;;8.00;;
68212;SDS011;55035;47.792;8.724;2023-02-21T09:34:33;16.27;;;8.30;;
68212;SDS011;55035;47.792;8.724;2023-02-21T09:37:04;15.60;;;7.80;;
68212;SDS011;55035;47.792;8.724;2023-02-21T09:39:31;14.38;;;7.70;;
68212;SDS011;55035;47.792;8.724;2023-02-21T09:41:58;15.13;;;7.70;;
68212;SDS011;55035;47.792;8.724;2023-02-21T09:44:25;14.15;;;7.75;;
68212;SDS011;55035;47.792;8.724;2023-02-21T09:46:53;15.10;;;7.70;;
68212;SDS011;55035;47.792;8.724;2023-02-21T09:49:22;15.53;;;7.23;;
68212;SDS011;55035;47.792;8.724;2023-02-21T09:51:50;15.18;;;7.78;;
68212;SDS011;55035;47.792;8.724;2023-02-21T09:54:23;16.63;;;7.72;;
68212;SDS011;55035;47.792;8.724;2023-02-21T09:56:50;14.82;;;7.75;;
68212;SDS011;55035;47.792;8.724;2023-02-21T09:59:17;13.50;;;7.57;;
68212;SDS011;55035;47.792;8.724;2023-02-21T10:01:48;14.20;;;7.67;;
68212;SDS011;55035;47.792;8.724;2023-02-21T10:04:20;16.65;;;7.70;;
68212;SDS011;55035;47.792;8.724;2023-02-21T10:06:50;15.20;;;7.95;;
68212;SDS011;55035;47.792;8.724;2023-02-21T10:09:21;13.50;;;7.75;;
68212;SDS011;55035;47.792;8.724;2023-02-21T10:11:56;14.63;;;8.07;;
68212;SDS011;55035;47.792;8.724;2023-02-21T10:14:26;13.43;;;7.57;;
68212;SDS011;55035;47.792;8.724;2023-02-21T10:16:58;16.55;;;7.45;;
68212;SDS011;55035;47.792;8.724;2023-02-21T10:19:28;14.20;;;8.32;;
68212;SDS011;55035;47.792;8.724;2023-02-21T10:21:57;16.83;;;8.25;;
68212;SDS011;55035;47.792;8.724;2023-02-21T10:24:26;14.95;;;8.98;;
68212;SDS011;55035;47.792;8.724;2023-02-21T10:26:55;15.80;;;8.80;;
68212;SDS011;55035;47.792;8.724;2023-02-21T10:29:32;14.50;;;7.75;;
68212;SDS011;55035;47.792;8.724;2023-02-21T10:32:01;14.82;;;8.10;;
68212;SDS011;55035;47.792;8.724;2023-02-21T10:34:37;14.65;;;8.05;;
68212;SDS011;55035;47.792;8.724;2023-02-21T10:37:10;14.55;;;7.90;;
68212;SDS011;55035;47.792;8.724;2023-02-21T10:39:42;15.57;;;8.20;;
68212;SDS011;55035;47.792;8.724;2023-02-21T10:42:11;14.02;;;7.60;;
68212;SDS011;55035;47.792;8.724;2023-02-21T10:44:41;15.13;;;7.80;;
68212;SDS011;55035;47.792;8.724;2023-02-21T10:47:12;14.07;;;7.72;;
68212;SDS011;55035;47.792;8.724;2023-02-21T10:49:41;16.02;;;8.50;;
68212;SDS011;55035;47.792;8.724;2023-02-21T10:52:11;16.57;;;8.60;;
68212;SDS011;55035;47.792;8.724;2023-02-21T10:54:38;13.10;;;8.30;;
68212;SDS011;55035;47.792;8.724;2023-02-21T10:57:06;13.95;;;8.27;;
68212;SDS011;55035;47.792;8.724;2023-02-21T10:59:35;14.40;;;8.00;;
68212;SDS011;55035;47.792;8.724;2023-02-21T11:04:51;13.47;;;7.67;;
68212;SDS011;55035;47.792;8.724;2023-02-21T11:07:19;13.15;;;8.30;;
68212;SDS011;55035;47.792;8.724;2023-02-21T11:09:47;14.82;;;8.80;;
68212;SDS011;55035;47.792;8.724;2023-02-21T11:12:16;13.80;;;8.52;;
68212;SDS011;55035;47.792;8.724;2023-02-21T11:15:03;14.85;;;8.40;;
68212;SDS011;55035;47.792;8.724;2023-02-21T11:17:31;13.70;;;7.70;;
68212;SDS011;55035;47.792;8.724;2023-02-21T11:20:01;15.23;;;8.48;;
68212;SDS011;55035;47.792;8.724;2023-02-21T11:22:35;14.07;;;8.60;;
68212;SDS011;55035;47.792;8.724;2023-02-21T11:25:03;13.65;;;8.60;;
68212;SDS011;55035;47.792;8.724;2023-02-21T11:27:32;14.43;;;8.75;;
68212;SDS011;55035;47.792;8.724;2023-02-21T11:29:59;14.57;;;8.70;;
68212;SDS011;55035;47.792;8.724;2023-02-21T11:32:34;14.45;;;8.55;;
68212;SDS011;55035;47.792;8.724;2023-02-21T11:35:06;13.68;;;8.15;;
68212;SDS011;55035;47.792;8.724;2023-02-21T11:37:45;15.60;;;8.15;;
68212;SDS011;55035;47.792;8.724;2023-02-21T11:40:20;12.90;;;8.20;;
68212;SDS011;55035;47.792;8.724;2023-02-21T11:42:47;12.97;;;8.00;;
68212;SDS011;55035;47.792;8.724;2023-02-21T11:45:18;15.35;;;9.63;;
68212;SDS011;55035;47.792;8.724;2023-02-21T11:47:51;14.95;;;8.65;;
68212;SDS011;55035;47.792;8.724;2023-02-21T11:50:21;14.70;;;8.65;;
68212;SDS011;55035;47.792;8.724;2023-02-21T11:52:50;14.38;;;9.15;;
68212;SDS011;55035;47.792;8.724;2023-02-21T11:55:21;14.27;;;7.60;;
68212;SDS011;55035;47.792;8.724;2023-02-21T11:57:50;14.18;;;8.13;;
68212;SDS011;55035;47.792;8.724;2023-02-21T12:00:23;13.15;;;8.77;;
68212;SDS011;55035;47.792;8.724;2023-02-21T12:03:05;13.98;;;8.30;;
68212;SDS011;55035;47.792;8.724;2023-02-21T12:05:39;13.20;;;7.93;;
68212;SDS011;55035;47.792;8.724;2023-02-21T12:08:16;12.70;;;8.50;;
68212;SDS011;55035;47.792;8.724;2023-02-21T12:10:48;13.65;;;8.70;;
68212;SDS011;55035;47.792;8.724;2023-02-21T12:13:19;12.50;;;8.45;;
68212;SDS011;55035;47.792;8.724;2023-02-21T12:15:50;13.23;;;8.27;;
68212;SDS011;55035;47.792;8.724;2023-02-21T12:18:28;12.00;;;8.30;;
68212;SDS011;55035;47.792;8.724;2023-02-21T12:21:06;12.83;;;8.50;;
68212;SDS011;55035;47.792;8.724;2023-02-21T12:23:37;13.52;;;8.15;;
68212;SDS011;55035;47.792;8.724;2023-02-21T12:26:15;13.20;;;7.93;;
68212;SDS011;55035;47.792;8.724;2023-02-21T12:28:50;16.42;;;8.38;;
68212;SDS011;55035;47.792;8.724;2023-02-21T12:31:24;13.38;;;8.95;;
68212;SDS011;55035;47.792;8.724;2023-02-21T12:33:59;12.20;;;6.93;;
68212;SDS011;55035;47.792;8.724;2023-02-21T12:36:34;13.00;;;8.45;;
68212;SDS011;55035;47.792;8.724;2023-02-21T12:39:09;12.50;;;8.60;;
68212;SDS011;55035;47.792;8.724;2023-02-21T12:41:51;25.73;;;7.80;;
68212;SDS011;55035;47.792;8.724;2023-02-21T12:44:20;19.17;;;8.45;;
68212;SDS011;55035;47.792;8.724;2023-02-21T12:46:49;13.57;;;8.37;;
68212;SDS011;55035;47.792;8.724;2023-02-21T12:49:20;12.20;;;7.25;;
68212;SDS011;55035;47.792;8.724;2023-02-21T12:51:49;13.80;;;7.30;;
68212;SDS011;55035;47.792;8.724;2023-02-21T12:54:18;15.55;;;7.70;;
68212;SDS011;55035;47.792;8.724;2023-02-21T12:56:47;11.68;;;7.35;;
68212;SDS011;55035;47.792;8.724;2023-02-21T12:59:17;10.80;;;6.50;;
68212;SDS011;55035;47.792;8.724;2023-02-21T13:01:47;12.38;;;7.78;;
68212;SDS011;55035;47.792;8.724;2023-02-21T13:04:17;11.00;;;7.22;;
68212;SDS011;55035;47.792;8.724;2023-02-21T13:06:50;12.65;;;7.28;;
68212;SDS011;55035;47.792;8.724;2023-02-21T13:09:24;11.40;;;6.80;;
68212;SDS011;55035;47.792;8.724;2023-02-21T13:11:55;11.63;;;7.03;;
68212;SDS011;55035;47.792;8.724;2023-02-21T13:14:23;11.23;;;6.50;;
68212;SDS011;55035;47.792;8.724;2023-02-21T13:16:51;12.50;;;7.45;;
68212;SDS011;55035;47.792;8.724;2023-02-21T13:19:18;13.00;;;7.10;;
68212;SDS011;55035;47.792;8.724;2023-02-21T13:21:52;13.32;;;7.70;;
68212;SDS011;55035;47.792;8.724;2023-02-21T13:24:23;14.23;;;7.50;;
68212;SDS011;55035;47.792;8.724;2023-02-21T13:27:16;11.70;;;6.88;;
68212;SDS011;55035;47.792;8.724;2023-02-21T13:29:45;15.00;;;7.63;;
68212;SDS011;55035;47.792;8.724;2023-02-21T13:32:15;12.05;;;6.53;;
68212;SDS011;55035;47.792;8.724;2023-02-21T13:34:44;11.40;;;7.30;;
68212;SDS011;55035;47.792;8.724;2023-02-21T13:37:17;11.17;;;6.23;;
68212;SDS011;55035;47.792;8.724;2023-02-21T13:39:45;14.23;;;6.78;;
68212;SDS011;55035;47.792;8.724;2023-02-21T13:42:16;13.05;;;7.57;;
68212;SDS011;55035;47.792;8.724;2023-02-21T13:44:44;13.05;;;7.53;;
68212;SDS011;55035;47.792;8.724;2023-02-21T13:47:12;12.77;;;7.53;;
68212;SDS011;55035;47.792;8.724;2023-02-21T13:49:40;14.23;;;7.27;;
68212;SDS011;55035;47.792;8.724;2023-02-21T13:55:21;13.55;;;7.68;;
68212;SDS011;55035;47.792;8.724;2023-02-21T13:57:50;12.57;;;7.38;;
68212;SDS011;55035;47.792;8.724;2023-02-21T14:08:39;14.27;;;7.10;;
68212;SDS011;55035;47.792;8.724;2023-02-21T14:11:14;12.63;;;7.50;;
68212;SDS011;55035;47.792;8.724;2023-02-21T14:13:47;13.65;;;7.85;;
68212;SDS011;55035;47.792;8.724;2023-02-21T14:16:16;12.93;;;7.60;;
68212;SDS011;55035;47.792;8.724;2023-02-21T14:18:48;13.70;;;7.35;;
68212;SDS011;55035;47.792;8.724;2023-02-21T14:21:21;13.65;;;7.38;;
68212;SDS011;55035;47.792;8.724;2023-02-21T14:23:49;12.20;;;7.50;;
68212;SDS011;55035;47.792;8.724;2023-02-21T14:26:39;12.70;;;8.13;;
68212;SDS011;55035;47.792;8.724;2023-02-21T14:29:14;13.17;;;7.50;;
68212;SDS011;55035;47.792;8.724;2023-02-21T14:31:49;14.30;;;8.13;;
68212;SDS011;55035;47.792;8.724;2023-02-21T14:34:19;11.77;;;7.32;;
68212;SDS011;55035;47.792;8.724;2023-02-21T14:36:47;13.77;;;7.55;;
68212;SDS011;55035;47.792;8.724;2023-02-21T14:39:15;13.45;;;7.60;;
68212;SDS011;55035;47.792;8.724;2023-02-21T14:41:49;14.13;;;7.33;;
68212;SDS011;55035;47.792;8.724;2023-02-21T14:44:20;13.00;;;6.63;;
68212;SDS011;55035;47.792;8.724;2023-02-21T14:46:58;12.20;;;6.75;;
68212;SDS011;55035;47.792;8.724;2023-02-21T14:49:41;13.80;;;7.05;;
68212;SDS011;55035;47.792;8.724;2023-02-21T14:57:56;14.27;;;7.45;;
68212;SDS011;55035;47.792;8.724;2023-02-21T15:00:28;13.73;;;7.45;;
68212;SDS011;55035;47.792;8.724;2023-02-21T15:03:00;13.02;;;6.88;;
68212;SDS011;55035;47.792;8.724;2023-02-21T15:05:30;14.20;;;7.35;;
68212;SDS011;55035;47.792;8.724;2023-02-21T15:08:01;12.33;;;6.53;;
68212;SDS011;55035;47.792;8.724;2023-02-21T15:10:28;12.45;;;6.90;;
68212;SDS011;55035;47.792;8.724;2023-02-21T15:12:57;16.55;;;7.25;;
68212;SDS011;55035;47.792;8.724;2023-02-21T15:15:25;15.18;;;7.03;;
68212;SDS011;55035;47.792;8.724;2023-02-21T15:18:04;13.35;;;7.43;;
68212;SDS011;55035;47.792;8.724;2023-02-21T15:20:31;14.07;;;6.60;;
68212;SDS011;55035;47.792;8.724;2023-02-21T15:22:59;15.98;;;6.80;;
68212;SDS011;55035;47.792;8.724;2023-02-21T15:25:27;13.35;;;6.85;;